Архив погоды в Анапе

Метеограмма Анапа обсерватория
Суббота, 22 Июля
Время местн. Темп Ветер Видим Явления Облачность нижн/средн/верх Атм. давл. Влжн Точка росы ВНГО R Сост. почвы Tg s
Напр Скр Прв ур.ст ур.м изм
18:00 +23.7° З,Ю-З 1 - 10 км - облачно 757 760 +0.1 89% +21.7° 1 км 0 - - -
15:00 +26.2° С-В 1 - 10 км - облачно 757 760 +0.1 67% +19.5° 1 км - - - -
12:00 +25.6° С,С-В 4 - 20 км - облачно 757 760 -0.2 65% +18.5° 1 км - - - -
09:00 +23.4° С-В 2 - 20 км - облачно 757 760 +0.5 69% +17.5° 1 км - - - -
06:00 +22° С-В 4 - 10 км - преимущественно облачно 757 760 +0.1 77% +17.7° 1 км 0 Влажная (без луж) +20° -
03:00 +22.4° С-В 3 - 10 км - переменная облачность 757 760 -0.5 83% +19.4° 1 км - - - -
00:00 +22.9° С,С-В 3 - 10 км - переменная облачность 757 760 -0.3 81% +19.4° 1 км - - - -
Пятница, 21 Июля
Время местн. Темп Ветер Видим Явления Облачность нижн/средн/верх Атм. давл. Влжн Точка росы ВНГО R Сост. почвы Tg s
Напр Скр Прв ур.ст ур.м изм
21:00 +24.4° С 3 - 10 км - переменная облачность 758 760 +0.2 72% +19° 1 км - - - -
18:00 +26.4° С-В 4 - 20 км - преимущественно облачно 757 760 -0.2 60% +18.1° 1 км 0 - - -
15:00 +27.4° В,С-В 4 - 20 км - переменная облачность 758 760 -0.2 56% +17.9° 1 км - - - -
12:00 +25.7° С-В 5 - 20 км - облачно с прояснениями 758 761 +0.1 61% +17.5° 1 км - - - -
09:00 +23.6° С-В 4 - 20 км - ясно 758 760 +0.4 70% +17.8° 1 км - - - -
06:00 +18.6° С-В 3 - 10 км - ясно 757 760 +0.3 89% +16.7° более 2.5 км 0 Влажная (без луж) +16° -
03:00 +17.2° С-В 3 - 4 км дымка ясно 757 760 +0.8 91% +15.8° более 2.5 км - - - -
00:00 +17.9° С-В 2 10 10 км - ясно 757 760 +0.8 88% +15.8° более 2.5 км - - - -
Четверг, 20 Июля
Время местн. Темп Ветер Видим Явления Облачность нижн/средн/верх Атм. давл. Влжн Точка росы ВНГО R Сост. почвы Tg s
Напр Скр Прв ур.ст ур.м изм
21:00 +18.8° В 5 - 10 км небо без изменений {ливневые осадки} переменная облачность 756 759 +0.4 83% +15.8° 1 км - - - -
18:00 +20.6° С,С-В 4 10 10 км небо без изменений {ливневые осадки} облачно с прояснениями 756 759 -0.3 72% +15.4° 1 км 13 - - -
15:00 +20° С,С-В 4 - 4 км слабый ливневый дождь облачно 756 759 +0.2 95% +19.2° 600 м - - - -
12:00 +19.9° С,С-В 3 - 4 км слабый ливневый дождь облачно 756 759 -0.2 93% +18.8° 600 м - - - -
09:00 +19.2° С,С-В 2 - 4 км слабый ливневый дождь облачно 756 759 +0.3 95% +18.3° 600 м - - - -
06:00 +19.4° С,С-В 2 - 4 км небо без изменений {ливневые осадки} облачно 756 759 -0.3 92% +18.1° 600 м 91 Сырая (есть малые или большие лужи) +19° -
03:00 +19.2° В 1 - 4 км слабый ливневый дождь {гроза} облачно 756 759 -1.4 91% +17.7° 600 м - - - -
00:00 +18.3° Ю 1 12 4 км слабая или умеренная гроза с осадками облачно 758 760 +1.9 98% +17.9° 600 м - - - -
Среда, 19 Июля
Время местн. Темп Ветер Видим Явления Облачность нижн/средн/верх Атм. давл. Влжн Точка росы ВНГО R Сост. почвы Tg s
Напр Скр Прв ур.ст ур.м изм
21:00 +21.6° С,С-В 6 11 10 км слабая или умеренная гроза с осадками преимущественно облачно 756 759 -0.1 75% +17° 600 м - - - -
18:00 +25.7° С 6 13 10 км - преимущественно облачно 756 759 +0.8 56% +16.4° 1 км 0 - - -
15:00 +29.1° С,С-В 7 12 10 км - преимущественно облачно 755 758 -0.5 51% +17.9° 1 км - - - -